Time;durP1;ratioP1;P1;durP2;ratioP2;P2;SDS_P1;SDS_P2;PMS_P1;PMS_P2;Temp;Humidity;BMP_temperature;BMP_pressure;BME280_temperature;BME280_humidity;BME280_pressure;Samples;Min_cycle;Max_cycle;Signal;HPM_P1;HPM_P2
2022/09/12 00:01:19;;;;;;;;;9.75;6.75;;;;;17.58;70.61;100723.75;5016201;28;45399;-74
2022/09/12 00:03:46;;;;;;;;;10.50;9.50;;;;;17.57;70.57;100720.22;5033176;28;46298;-75
2022/09/12 00:06:26;;;;;;;;;10.00;7.00;;;;;17.55;71.00;100719.44;5035868;28;45381;-75
2022/09/12 00:08:58;;;;;;;;;7.50;7.50;;;;;17.53;70.62;100720.44;5035559;28;45584;-75
2022/09/12 00:11:23;;;;;;;;;9.50;7.50;;;;;17.51;70.88;100719.66;5036973;28;45512;-75
2022/09/12 00:13:49;;;;;;;;;8.00;6.50;;;;;17.50;71.03;100715.25;5036259;28;45388;-74
2022/09/12 00:16:18;;;;;;;;;9.50;6.50;;;;;17.51;70.94;100711.66;5033660;28;45431;-73
2022/09/12 00:18:45;;;;;;;;;10.50;7.00;;;;;17.53;71.01;100709.75;5036577;28;45581;-76
2022/09/12 00:21:12;;;;;;;;;8.25;8.00;;;;;17.50;71.21;100712.56;5038484;28;45522;-75
2022/09/12 00:23:37;;;;;;;;;13.00;10.00;;;;;17.46;71.05;100703.84;5019170;28;45490;-74
2022/09/12 00:26:06;;;;;;;;;13.00;9.00;;;;;17.45;71.35;100699.44;5036515;28;45593;-75
2022/09/12 00:28:34;;;;;;;;;11.75;10.75;;;;;17.30;71.16;100684.13;5035653;28;45502;-75
2022/09/12 00:31:06;;;;;;;;;18.00;15.50;;;;;17.39;71.44;100697.03;5036694;28;45509;-75
2022/09/12 00:33:33;;;;;;;;;12.75;10.75;;;;;17.39;71.52;100694.38;5018172;28;45488;-74
2022/09/12 00:35:58;;;;;;;;;19.75;17.25;;;;;17.38;71.49;100700.66;5035283;28;45573;-75
2022/09/12 00:38:24;;;;;;;;;24.00;15.00;;;;;17.33;71.38;100686.66;5036100;28;45546;-73
2022/09/12 00:40:49;;;;;;;;;18.50;17.50;;;;;17.29;71.69;100685.03;5036122;28;45419;-75
2022/09/12 00:43:36;;;;;;;;;15.50;14.25;;;;;17.32;71.63;100690.25;5036476;28;46314;-74
2022/09/12 00:46:18;;;;;;;;;18.75;15.50;;;;;17.29;71.52;100679.72;5035456;28;45624;-74
2022/09/12 00:48:55;;;;;;;;;12.25;10.75;;;;;17.29;71.45;100671.69;5036307;28;46175;-74
2022/09/12 00:51:22;;;;;;;;;10.00;8.75;;;;;17.28;71.59;100667.28;5037112;28;45448;-75
2022/09/12 00:53:51;;;;;;;;;12.75;8.25;;;;;17.28;71.38;100667.28;5035785;28;46084;-74
2022/09/12 00:56:18;;;;;;;;;8.75;7.50;;;;;17.27;71.50;100668.25;5035130;28;45503;-74
2022/09/12 00:59:07;;;;;;;;;13.25;9.75;;;;;17.27;71.31;100661.06;5036019;28;45386;-74
2022/09/12 01:01:33;;;;;;;;;11.50;11.00;;;;;17.26;71.31;100663.81;5036253;28;45455;-75
2022/09/12 01:03:59;;;;;;;;;7.50;6.75;;;;;17.23;71.48;100657.69;5035954;28;45523;-74
2022/09/12 01:06:34;;;;;;;;;6.50;6.50;;;;;17.21;71.59;100661.38;5036164;28;45354;-75
2022/09/12 01:09:03;;;;;;;;;10.75;7.25;;;;;17.20;71.82;100665.84;5035734;28;45478;-75
2022/09/12 01:11:35;;;;;;;;;9.00;7.00;;;;;17.19;71.87;100668.59;5036196;28;45408;-76
2022/09/12 01:14:00;;;;;;;;;7.00;7.00;;;;;17.15;71.67;100665.19;5035636;28;45489;-75
2022/09/12 01:16:25;;;;;;;;;9.00;9.00;;;;;17.14;71.92;100665.25;5033740;28;45346;-75
2022/09/12 01:18:54;;;;;;;;;6.25;6.25;;;;;17.13;71.89;100663.53;5036635;28;45446;-73
2022/09/12 01:21:25;;;;;;;;;9.00;9.00;;;;;17.11;72.12;100655.59;5034609;28;45394;-75
2022/09/12 01:24:25;;;;;;;;;9.50;6.50;;;;;17.10;72.19;100653.00;5035190;28;45440;-76
2022/09/12 01:27:11;;;;;;;;;6.25;6.00;;;;;17.08;72.03;100650.41;5017301;28;45566;-74
2022/09/12 01:30:03;;;;;;;;;7.00;6.00;;;;;16.95;72.21;100633.22;5035449;28;45495;-75
2022/09/12 01:32:50;;;;;;;;;5.75;5.00;;;;;17.06;72.19;100644.25;5036134;28;45502;-74
2022/09/12 01:35:16;;;;;;;;;7.25;7.25;;;;;17.05;72.48;100642.53;5034766;28;46280;-74
2022/09/12 01:38:07;;;;;;;;;9.00;7.00;;;;;17.02;72.78;100634.63;5035298;28;45537;-75
2022/09/12 01:41:00;;;;;;;;;8.50;8.50;;;;;16.97;72.83;100625.97;5034018;28;45447;-75
2022/09/12 01:43:36;;;;;;;;;7.75;7.75;;;;;16.94;72.63;100626.97;5035539;28;45460;-75
2022/09/12 01:46:19;;;;;;;;;14.25;10.00;;;;;16.94;72.51;100626.97;5033653;28;45587;-73
2022/09/12 01:48:55;;;;;;;;;10.75;7.25;;;;;16.87;72.93;100626.41;5035669;28;45572;-74
2022/09/12 01:51:50;;;;;;;;;10.50;10.50;;;;;16.91;72.97;100631.59;5035634;28;45406;-74
2022/09/12 01:54:28;;;;;;;;;6.25;5.00;;;;;16.90;73.32;100632.53;5034513;28;45528;-75
2022/09/12 01:56:58;;;;;;;;;9.00;9.00;;;;;16.88;73.22;100632.59;5015133;28;46221;-75
2022/09/12 01:59:40;;;;;;;;;6.50;6.50;;;;;16.80;73.55;100630.25;5029845;28;45426;-75
2022/09/12 02:02:15;;;;;;;;;3.25;2.00;;;;;16.86;73.10;100632.66;5034838;28;45468;-75
2022/09/12 02:04:50;;;;;;;;;7.00;7.00;;;;;16.86;73.16;100638.00;5033619;28;45400;-74
2022/09/12 02:07:26;;;;;;;;;11.25;6.25;;;;;16.84;73.66;100631.84;5033092;28;46361;-75
2022/09/12 02:10:16;;;;;;;;;10.50;9.00;;;;;16.78;73.58;100625.94;5035252;28;45471;-75
2022/09/12 02:13:02;;;;;;;;;10.00;7.50;;;;;16.78;73.64;100632.13;5035361;28;45504;-75
2022/09/12 02:15:40;;;;;;;;;7.50;6.00;;;;;16.66;73.70;100608.66;5034214;28;45388;-76
2022/09/12 02:18:07;;;;;;;;;10.00;8.00;;;;;16.78;73.68;100621.44;5034321;28;46342;-73
2022/09/12 02:20:38;;;;;;;;;6.25;5.50;;;;;16.77;73.82;100618.84;5033954;28;45533;-74
2022/09/12 02:23:08;;;;;;;;;8.50;8.50;;;;;16.75;73.70;100621.59;5034726;28;45869;-73
2022/09/12 02:25:38;;;;;;;;;13.25;10.50;;;;;16.75;73.60;100616.25;5033974;28;45444;-75
2022/09/12 02:28:11;;;;;;;;;11.75;9.50;;;;;16.74;73.79;100619.00;5033943;28;45440;-75
2022/09/12 02:30:44;;;;;;;;;11.75;10.25;;;;;16.69;73.83;100612.06;5016295;28;45422;-74
2022/09/12 02:33:23;;;;;;;;;8.25;6.50;;;;;16.65;74.00;100606.91;5034717;28;45467;-73
2022/09/12 02:36:10;;;;;;;;;8.75;8.25;;;;;16.62;74.12;100602.56;5033931;28;45452;-75
2022/09/12 02:38:47;;;;;;;;;10.25;8.25;;;;;16.60;74.17;100604.47;5034319;28;45569;-75
2022/09/12 02:41:16;;;;;;;;;11.00;7.75;;;;;16.57;74.05;100598.41;5032922;28;45392;-75
2022/09/12 02:43:42;;;;;;;;;8.50;6.75;;;;;16.60;74.07;100607.13;5034585;28;45535;-74
2022/09/12 02:46:13;;;;;;;;;10.75;9.50;;;;;16.57;74.19;100595.75;5033614;28;45496;-75
2022/09/12 02:48:42;;;;;;;;;8.25;6.00;;;;;16.59;74.23;100596.53;5013738;28;47312;-74
2022/09/12 02:51:09;;;;;;;;;11.00;8.25;;;;;16.55;74.38;100586.91;5015011;28;45431;-74
2022/09/12 02:53:35;;;;;;;;;6.75;6.75;;;;;16.40;74.38;100562.69;5014131;28;45460;-74
2022/09/12 02:56:00;;;;;;;;;6.25;6.25;;;;;16.52;74.60;100588.78;5026497;28;45595;-74
2022/09/12 02:58:30;;;;;;;;;7.50;6.00;;;;;16.49;74.51;100591.59;5034278;28;45474;-74
2022/09/12 03:01:08;;;;;;;;;5.25;5.25;;;;;16.49;74.31;100574.75;5034153;28;45366;-74
2022/09/12 03:03:42;;;;;;;;;10.00;8.50;;;;;16.49;74.45;100578.25;5034137;28;45428;-74
2022/09/12 03:06:41;;;;;;;;;9.00;7.00;;;;;16.44;74.56;100574.06;5034213;28;45631;-75
2022/09/12 03:09:15;;;;;;;;;8.00;6.00;;;;;16.44;74.82;100585.63;4972248;28;46486;-76
2022/09/12 03:11:46;;;;;;;;;11.00;9.25;;;;;16.42;75.00;100575.94;4973025;28;45456;-73
2022/09/12 03:14:51;;;;;;;;;10.00;8.25;;;;;16.39;74.85;100566.25;4973218;28;45416;-75
2022/09/12 03:17:25;;;;;;;;;9.00;6.25;;;;;16.36;74.95;100571.75;4952264;28;45511;-74
2022/09/12 03:20:10;;;;;;;;;4.75;4.75;;;;;16.31;75.23;100561.28;4953172;28;46558;-75
2022/09/12 03:22:49;;;;;;;;;5.25;5.00;;;;;16.31;75.30;100571.94;4952328;28;45460;-75
2022/09/12 03:25:21;;;;;;;;;10.00;9.00;;;;;16.26;75.31;100565.97;4952748;28;45452;-74
2022/09/12 03:27:59;;;;;;;;;12.50;8.75;;;;;16.25;76.00;100563.34;4953098;28;45531;-74
2022/09/12 03:30:25;;;;;;;;;5.75;4.50;;;;;16.23;75.62;100554.53;4952128;28;46500;-74
2022/09/12 03:32:53;;;;;;;;;9.25;7.00;;;;;16.22;75.50;100552.81;4952865;28;45548;-75
2022/09/12 03:35:21;;;;;;;;;9.50;8.75;;;;;16.22;75.51;100558.16;4951733;28;45517;-75
2022/09/12 03:37:48;;;;;;;;;10.50;8.00;;;;;16.24;75.56;100556.28;4952407;28;45579;-75
2022/09/12 03:40:14;;;;;;;;;6.50;5.50;;;;;16.22;75.64;100555.50;4951831;28;45422;-75
2022/09/12 03:42:40;;;;;;;;;6.50;6.50;;;;;16.22;75.57;100558.16;4953398;28;45475;-74
2022/09/12 03:45:06;;;;;;;;;8.00;7.00;;;;;16.22;75.45;100552.81;4952932;28;45555;-74
2022/09/12 03:47:31;;;;;;;;;8.75;7.00;;;;;16.19;75.54;100543.16;4990648;28;45647;-74
2022/09/12 03:49:57;;;;;;;;;10.75;9.50;;;;;16.19;75.80;100544.97;4991711;28;45438;-75
2022/09/12 03:52:22;;;;;;;;;5.75;5.75;;;;;16.16;75.52;100546.81;4991273;28;45412;-75
2022/09/12 03:54:47;;;;;;;;;9.00;8.00;;;;;16.13;75.89;100546.94;5024547;28;45916;-75
2022/09/12 03:57:13;;;;;;;;;8.00;6.00;;;;;16.14;75.86;100551.34;5033607;28;45404;-75
2022/09/12 03:59:38;;;;;;;;;6.00;6.00;;;;;16.09;76.07;100547.16;5032710;28;45918;-76
2022/09/12 04:02:03;;;;;;;;;9.00;7.00;;;;;16.10;76.09;100555.06;5033634;28;45483;-75
2022/09/12 04:04:29;;;;;;;;;12.25;10.50;;;;;16.04;76.02;100543.81;5034195;28;45419;-74
2022/09/12 04:06:55;;;;;;;;;9.75;6.00;;;;;16.03;76.32;100542.94;5033213;28;45328;-74
2022/09/12 04:09:20;;;;;;;;;9.00;8.25;;;;;16.03;76.37;100553.59;5031692;28;45477;-75
2022/09/12 04:11:45;;;;;;;;;8.00;8.00;;;;;16.02;76.39;100556.31;5033917;28;45370;-77
2022/09/12 04:14:11;;;;;;;;;8.25;6.50;;;;;15.94;76.56;100552.22;5032399;28;45458;-75
2022/09/12 04:16:37;;;;;;;;;7.50;7.50;;;;;15.99;76.54;100555.53;5033589;28;45487;-74
2022/09/12 04:19:03;;;;;;;;;9.25;6.25;;;;;15.95;76.72;100553.94;5033772;28;46355;-74
2022/09/12 04:21:29;;;;;;;;;9.25;8.25;;;;;15.97;76.76;100562.75;5033297;28;45371;-76
2022/09/12 04:23:56;;;;;;;;;11.75;9.00;;;;;15.92;76.84;100556.72;5032237;28;45464;-74
2022/09/12 04:26:21;;;;;;;;;8.75;8.75;;;;;15.93;76.90;100558.47;5033618;28;45341;-77
2022/09/12 04:28:47;;;;;;;;;8.50;7.00;;;;;15.91;76.85;100557.69;5032088;28;46256;-76
2022/09/12 04:31:16;;;;;;;;;8.00;8.00;;;;;15.91;76.97;100564.78;5033299;28;45353;-75
2022/09/12 04:33:43;;;;;;;;;9.25;6.00;;;;;15.91;76.78;100565.69;5032955;28;45520;-74
2022/09/12 04:36:16;;;;;;;;;8.50;8.00;;;;;15.88;76.99;100557.81;5033459;28;45545;-74
2022/09/12 04:38:43;;;;;;;;;8.00;8.00;;;;;15.88;77.11;100557.81;5032618;28;45609;-74
2022/09/12 04:41:10;;;;;;;;;5.00;5.00;;;;;15.86;77.22;100557.00;5032701;28;45554;-75
2022/09/12 04:43:36;;;;;;;;;11.00;11.00;;;;;15.87;77.56;100569.38;5021985;28;45550;-75
2022/09/12 04:46:10;;;;;;;;;9.75;9.25;;;;;15.84;77.13;100558.00;5033289;28;45499;-74
2022/09/12 04:48:36;;;;;;;;;9.50;6.50;;;;;15.84;77.13;100550.88;5033197;28;45461;-76
2022/09/12 04:51:10;;;;;;;;;6.25;5.00;;;;;15.84;77.48;100550.88;5033736;28;45321;-76
2022/09/12 04:53:36;;;;;;;;;12.50;8.75;;;;;15.82;77.47;100547.41;5033887;28;45515;-74
2022/09/12 04:56:04;;;;;;;;;7.00;6.00;;;;;15.79;77.37;100547.50;5036385;28;45478;-75
2022/09/12 04:58:31;;;;;;;;;9.75;8.00;;;;;15.79;77.21;100540.41;5035934;28;45425;-75
2022/09/12 05:01:05;;;;;;;;;8.75;7.00;;;;;15.80;77.34;100542.16;5035861;28;45435;-75
2022/09/12 05:03:31;;;;;;;;;10.00;8.75;;;;;15.77;77.38;100536.91;5025222;28;45531;-74
2022/09/12 05:05:56;;;;;;;;;10.00;10.00;;;;;15.76;77.28;100539.63;5016603;28;45555;-76
2022/09/12 05:08:21;;;;;;;;;7.75;7.75;;;;;15.76;77.11;100537.84;5016141;28;46693;-74
2022/09/12 05:10:47;;;;;;;;;6.00;6.00;;;;;15.78;77.44;100536.00;5016124;28;45456;-75
2022/09/12 05:13:12;;;;;;;;;13.00;10.00;;;;;15.74;77.57;100534.34;5023598;28;45516;-76
2022/09/12 05:15:38;;;;;;;;;11.00;7.50;;;;;15.74;77.66;100531.69;5036881;28;45415;-75
2022/09/12 05:18:05;;;;;;;;;9.50;8.00;;;;;15.75;77.68;100532.56;5034503;28;45562;-76
2022/09/12 05:20:31;;;;;;;;;8.00;8.00;;;;;15.73;77.16;100523.75;5036421;28;45394;-75
2022/09/12 05:22:58;;;;;;;;;8.50;8.25;;;;;15.79;77.30;100529.75;5035251;28;45317;-75
2022/09/12 05:25:24;;;;;;;;;9.00;8.50;;;;;15.80;77.22;100544.81;5036212;28;45403;-75
2022/09/12 05:27:53;;;;;;;;;14.00;8.00;;;;;15.80;77.39;100538.59;5035766;28;45367;-75
2022/09/12 05:30:18;;;;;;;;;9.25;7.00;;;;;15.93;77.39;100536.28;5034507;28;45431;-76
2022/09/12 05:32:44;;;;;;;;;6.25;6.25;;;;;16.08;76.36;100534.75;5034597;28;45403;-75
2022/09/12 05:35:10;;;;;;;;;11.00;9.50;;;;;16.30;75.45;100532.84;5035586;28;45551;-74
2022/09/12 05:37:37;;;;;;;;;10.25;6.50;;;;;16.72;73.92;100531.00;5034287;28;46108;-76
2022/09/12 05:40:06;;;;;;;;;8.25;7.50;;;;;17.16;72.83;100527.22;5037181;28;45487;-76
2022/09/12 05:42:32;;;;;;;;;5.50;5.50;;;;;17.71;70.80;100537.81;5036186;28;45513;-74
2022/09/12 05:44:57;;;;;;;;;6.00;3.50;;;;;18.22;68.84;100535.28;5034775;28;45662;-74
2022/09/12 05:47:22;;;;;;;;;8.00;5.75;;;;;18.67;67.16;100524.00;5035476;28;45666;-75
2022/09/12 05:49:51;;;;;;;;;10.25;6.00;;;;;19.23;65.60;100524.50;5035785;28;45587;-76
2022/09/12 05:52:16;;;;;;;;;10.75;7.50;;;;;19.64;63.70;100497.94;5035863;28;45404;-80
2022/09/12 05:54:42;;;;;;;;;12.75;11.25;;;;;20.27;61.46;100528.22;5001522;28;45736;-75
2022/09/12 05:57:07;;;;;;;;;5.75;5.75;;;;;20.83;59.81;100531.03;5035078;28;45596;-76
2022/09/12 05:59:33;;;;;;;;;10.25;9.25;;;;;21.44;57.95;100545.00;5035508;28;45353;-75
2022/09/12 06:01:59;;;;;;;;;5.75;5.75;;;;;22.00;56.37;100538.59;5035736;28;45375;-75
2022/09/12 06:04:25;;;;;;;;;9.00;7.25;;;;;22.48;54.89;100522.72;5034479;28;45337;-77
2022/09/12 06:06:50;;;;;;;;;6.50;6.50;;;;;23.06;53.41;100524.88;5036861;28;46717;-75
2022/09/12 06:09:16;;;;;;;;;5.50;5.50;;;;;23.57;51.65;100510.38;5035801;28;45592;-76
2022/09/12 06:11:43;;;;;;;;;8.00;6.75;;;;;24.02;50.12;100504.28;5035901;28;45407;-75
2022/09/12 06:14:10;;;;;;;;;10.75;9.50;;;;;24.36;49.59;100509.75;5033751;28;45673;-76
2022/09/12 06:16:37;;;;;;;;;9.00;6.75;;;;;24.81;48.43;100513.34;5032285;28;46127;-77
2022/09/12 06:19:11;;;;;;;;;8.75;7.00;;;;;25.43;46.63;100512.88;5034150;28;45447;-74
2022/09/12 06:21:38;;;;;;;;;8.75;6.00;;;;;25.96;45.54;100518.28;5023462;28;45353;-75
2022/09/12 06:24:05;;;;;;;;;8.00;7.00;;;;;26.47;44.95;100523.91;5020746;28;45427;-76
2022/09/12 06:26:30;;;;;;;;;4.50;4.00;;;;;26.87;43.33;100517.66;5008405;28;45459;-75
2022/09/12 06:28:58;;;;;;;;;6.25;6.25;;;;;27.47;42.03;100521.25;5029876;28;45508;-76
2022/09/12 06:31:30;;;;;;;;;5.50;5.50;;;;;27.97;41.41;100514.81;5026913;28;45658;-76
2022/09/12 06:34:00;;;;;;;;;6.00;6.00;;;;;28.37;40.55;100515.59;5030943;28;45572;-76
2022/09/12 06:36:28;;;;;;;;;5.50;5.50;;;;;28.42;39.60;100518.72;5022885;28;46366;-77
2022/09/12 06:38:56;;;;;;;;;7.00;7.00;;;;;28.49;39.56;100522.56;5003273;28;45436;-77
2022/09/12 06:41:22;;;;;;;;;7.00;4.00;;;;;28.53;39.45;100531.28;5030668;28;45497;-77
2022/09/12 06:43:47;;;;;;;;;6.75;6.75;;;;;28.27;39.26;100525.63;5022231;28;45441;-77
2022/09/12 06:46:13;;;;;;;;;4.00;4.00;;;;;27.89;39.99;100527.38;5016850;28;45504;-76
2022/09/12 06:48:38;;;;;;;;;6.75;4.50;;;;;27.57;40.24;100517.66;5016701;28;45495;-76
2022/09/12 06:51:08;;;;;;;;;8.00;7.00;;;;;27.39;41.15;100515.69;5019260;28;45412;-76
2022/09/12 06:53:35;;;;;;;;;5.75;5.75;;;;;27.22;41.06;100529.88;5025368;28;45373;-76
2022/09/12 06:56:08;;;;;;;;;5.25;5.25;;;;;27.40;41.18;100519.25;5013221;28;46304;-74
2022/09/12 06:58:35;;;;;;;;;4.00;4.00;;;;;27.98;40.54;100515.69;5025218;28;45385;-75
2022/09/12 07:01:09;;;;;;;;;7.00;7.00;;;;;28.34;39.40;100516.72;5032948;28;45401;-74
2022/09/12 07:03:36;;;;;;;;;5.25;4.00;;;;;28.88;39.65;100516.97;5028320;28;45609;-77
2022/09/12 07:06:05;;;;;;;;;5.75;4.00;;;;;29.12;37.70;100515.53;5028701;28;45929;-76
2022/09/12 07:08:32;;;;;;;;;4.50;4.00;;;;;29.24;37.66;100506.22;5025599;28;45538;-76
2022/09/12 07:11:00;;;;;;;;;9.50;7.75;;;;;29.62;37.01;100516.94;5026059;28;45504;-75
2022/09/12 07:13:26;;;;;;;;;8.75;8.75;;;;;29.60;36.36;100505.34;5020475;28;45623;-74
2022/09/12 07:15:51;;;;;;;;;8.00;7.00;;;;;29.94;36.78;100512.81;5023445;28;45474;-80
2022/09/12 07:18:16;;;;;;;;;7.75;7.75;;;;;30.33;35.75;100512.41;5025046;28;45421;-81
2022/09/12 07:20:42;;;;;;;;;5.75;5.75;;;;;30.44;34.75;100514.00;5024917;28;45620;-76
2022/09/12 07:23:08;;;;;;;;;6.50;6.50;;;;;30.53;34.26;100518.50;5018141;28;45583;-74
2022/09/12 07:25:33;;;;;;;;;7.75;7.75;;;;;30.76;34.31;100516.06;5003629;28;46106;-74
2022/09/12 07:27:59;;;;;;;;;1.75;1.75;;;;;31.08;34.36;100513.63;5020223;28;45548;-74
2022/09/12 07:30:24;;;;;;;;;5.50;5.00;;;;;30.30;34.57;100510.84;5019627;28;45824;-75
2022/09/12 07:32:54;;;;;;;;;7.75;6.00;;;;;29.65;35.23;100510.31;5016678;28;45713;-75
2022/09/12 07:35:20;;;;;;;;;9.50;5.00;;;;;29.74;35.89;100518.41;5018984;28;46224;-75
2022/09/12 07:37:46;;;;;;;;;4.00;4.00;;;;;30.14;35.04;100505.31;5027912;28;45494;-76
2022/09/12 07:40:12;;;;;;;;;7.50;5.75;;;;;30.65;34.34;100513.63;5023246;28;45632;-75
2022/09/12 07:42:37;;;;;;;;;5.75;5.75;;;;;30.92;34.30;100517.16;5024302;28;45559;-75
2022/09/12 07:45:03;;;;;;;;;9.50;5.25;;;;;31.09;34.16;100509.91;5008233;28;47121;-74
2022/09/12 07:47:28;;;;;;;;;4.50;4.00;;;;;31.18;34.00;100504.28;5017278;28;45771;-75
2022/09/12 07:49:53;;;;;;;;;5.00;5.00;;;;;31.34;33.17;100502.63;5009809;28;45582;-75
2022/09/12 07:52:20;;;;;;;;;4.75;3.50;;;;;31.93;33.07;100498.91;5020354;28;45717;-86
2022/09/12 07:54:46;;;;;;;;;4.00;4.00;;;;;32.62;32.33;100501.19;5030438;28;45411;-75
2022/09/12 07:57:11;;;;;;;;;5.50;3.25;;;;;33.26;30.71;100507.41;5022903;28;45516;-74
2022/09/12 07:59:41;;;;;;;;;6.00;6.00;;;;;33.34;30.43;100505.66;5022894;28;45673;-75
2022/09/12 08:02:10;;;;;;;;;3.50;3.50;;;;;33.65;30.65;100506.44;5023138;28;45601;-73
2022/09/12 08:04:35;;;;;;;;;4.25;4.25;;;;;33.90;30.29;100494.44;5019688;28;46091;-74
2022/09/12 08:07:01;;;;;;;;;5.00;5.00;;;;;34.20;28.83;100505.47;5017319;28;45480;-75
2022/09/12 08:09:26;;;;;;;;;4.50;3.25;;;;;34.17;28.55;100499.31;5003077;28;45573;-74
2022/09/12 08:11:51;;;;;;;;;5.00;5.00;;;;;33.92;29.33;100509.69;5028670;28;45561;-74
2022/09/12 08:14:17;;;;;;;;;1.00;1.00;;;;;33.96;29.43;100504.66;5028857;28;46028;-74
2022/09/12 08:16:43;;;;;;;;;3.50;3.50;;;;;34.27;28.68;100506.44;5028061;28;45338;-72
2022/09/12 08:19:08;;;;;;;;;3.25;3.00;;;;;33.65;29.24;100508.34;5021296;28;45412;-74
2022/09/12 08:21:34;;;;;;;;;8.00;5.00;;;;;33.75;30.11;100506.22;5026638;28;45351;-74
2022/09/12 08:24:05;;;;;;;;;6.00;6.00;;;;;34.07;29.03;100512.44;5028606;28;45959;-73
2022/09/12 08:26:32;;;;;;;;;3.00;3.00;;;;;34.55;29.11;100508.53;5003041;28;45958;-74
2022/09/12 08:28:58;;;;;;;;;3.25;2.00;;;;;34.46;28.47;100505.88;5026676;28;45454;-74
2022/09/12 08:31:25;;;;;;;;;3.00;3.00;;;;;34.48;28.52;100509.31;5033597;28;45641;-74
2022/09/12 08:33:53;;;;;;;;;3.50;3.50;;;;;34.74;28.24;100507.97;5031527;28;45417;-74
2022/09/12 08:36:25;;;;;;;;;3.00;3.00;;;;;35.05;27.22;100504.16;5028958;28;45569;-74
2022/09/12 08:38:57;;;;;;;;;4.00;4.00;;;;;35.18;27.98;100501.56;5023279;28;45474;-74
2022/09/12 08:41:29;;;;;;;;;3.75;3.50;;;;;35.31;27.12;100494.53;5019266;28;45448;-73
2022/09/12 08:44:07;;;;;;;;;4.00;3.00;;;;;35.05;27.71;100498.66;5015828;28;46249;-75
2022/09/12 08:46:39;;;;;;;;;3.75;3.00;;;;;35.07;28.01;100507.53;5034074;28;45432;-74
2022/09/12 08:49:24;;;;;;;;;3.00;2.00;;;;;35.31;27.99;100497.28;5031370;28;45570;-74
2022/09/12 08:51:50;;;;;;;;;4.00;3.00;;;;;35.76;27.36;100504.25;5020855;28;45479;-73
2022/09/12 08:54:23;;;;;;;;;4.50;4.50;;;;;36.06;26.39;100506.00;5021631;28;45526;-74
2022/09/12 08:56:48;;;;;;;;;5.75;4.00;;;;;36.28;26.56;100499.41;5017929;28;45684;-74
2022/09/12 08:59:14;;;;;;;;;4.00;4.00;;;;;36.38;26.31;100498.22;5019059;28;45715;-76
2022/09/12 09:01:42;;;;;;;;;3.00;3.00;;;;;36.49;25.96;100499.53;5022285;28;45497;-74
2022/09/12 09:04:17;;;;;;;;;4.25;4.25;;;;;36.55;25.95;100496.84;5029384;28;46141;-74
2022/09/12 09:06:48;;;;;;;;;3.50;3.50;;;;;36.12;25.98;100499.69;5020765;28;45578;-75
2022/09/12 09:09:38;;;;;;;;;3.00;3.00;;;;;35.52;27.37;100502.78;5025358;28;45595;-75
2022/09/12 09:12:34;;;;;;;;;3.00;3.00;;;;;35.77;26.68;100485.91;5019602;28;45515;-75
2022/09/12 09:15:21;;;;;;;;;5.00;5.00;;;;;35.69;26.98;100489.59;5020679;28;45585;-75
2022/09/12 09:18:22;;;;;;;;;2.00;2.00;;;;;35.29;26.70;100489.25;5021165;28;45538;-75
2022/09/12 09:20:54;;;;;;;;;3.00;3.00;;;;;34.52;27.24;100490.56;5018061;28;45492;-72
2022/09/12 09:23:29;;;;;;;;;2.75;2.75;;;;;34.16;27.74;100486.66;5022228;28;45562;-73
2022/09/12 09:26:09;;;;;;;;;4.00;3.00;;;;;34.48;27.85;100478.25;5026980;28;45440;-74
2022/09/12 09:28:52;;;;;;;;;4.50;4.50;;;;;34.68;28.42;100482.13;5016514;28;45423;-73
2022/09/12 09:31:20;;;;;;;;;5.75;4.25;;;;;34.73;27.86;100483.47;5019092;28;45491;-75
2022/09/12 09:33:49;;;;;;;;;5.50;4.50;;;;;34.34;27.71;100485.47;5030553;28;45660;-75
2022/09/12 09:36:39;;;;;;;;;4.75;3.25;;;;;34.09;28.25;100477.47;5020557;28;47265;-74
2022/09/12 09:39:30;;;;;;;;;3.50;3.50;;;;;34.00;28.31;100484.09;5026309;28;45399;-74
2022/09/12 09:41:58;;;;;;;;;4.25;3.25;;;;;33.76;27.49;100472.31;5027943;28;45563;-75
2022/09/12 09:44:27;;;;;;;;;4.00;3.00;;;;;33.96;28.45;100471.78;5031033;28;45419;-74
2022/09/12 09:46:56;;;;;;;;;2.25;2.25;;;;;34.58;28.05;100470.59;5025731;28;45463;-73
2022/09/12 09:49:25;;;;;;;;;2.00;2.00;;;;;34.35;26.91;100482.53;5012869;28;45464;-73
2022/09/12 09:51:52;;;;;;;;;3.00;3.00;;;;;34.42;29.19;100465.31;5024718;28;45496;-75
2022/09/12 09:54:25;;;;;;;;;2.50;2.50;;;;;34.84;27.69;100459.13;5024933;28;45615;-74
2022/09/12 09:56:51;;;;;;;;;2.00;2.00;;;;;35.25;27.11;100457.69;5028540;28;46448;-75
2022/09/12 09:59:33;;;;;;;;;2.00;2.00;;;;;35.56;26.89;100451.88;5032182;28;45411;-76
2022/09/12 10:02:22;;;;;;;;;1.00;1.00;;;;;35.66;26.46;100461.69;5022073;28;45516;-75
2022/09/12 10:04:56;;;;;;;;;3.50;2.25;;;;;36.03;26.12;100462.41;5017192;28;45551;-76
2022/09/12 10:07:23;;;;;;;;;1.00;1.00;;;;;35.79;26.48;100445.34;5023199;28;46088;-75
2022/09/12 10:10:15;;;;;;;;;1.25;1.00;;;;;35.85;25.98;100449.19;5029249;28;45408;-76
2022/09/12 10:12:40;;;;;;;;;2.25;2.00;;;;;35.72;26.23;100433.41;5025777;28;45496;-76
2022/09/12 10:15:21;;;;;;;;;1.25;1.25;;;;;35.81;25.25;100448.72;5024517;28;45623;-76
2022/09/12 10:17:49;;;;;;;;;4.00;3.00;;;;;35.82;26.06;100439.44;5024601;28;46156;-75
2022/09/12 10:20:39;;;;;;;;;5.00;4.00;;;;;35.71;26.19;100437.19;5024309;28;45590;-75
2022/09/12 10:23:34;;;;;;;;;3.25;3.00;;;;;35.47;26.56;100431.09;5027474;28;45471;-76
2022/09/12 10:26:03;;;;;;;;;4.00;2.00;;;;;35.82;25.52;100435.84;5016793;28;45515;-76
2022/09/12 10:28:50;;;;;;;;;2.50;1.00;;;;;35.82;26.07;100428.47;5023250;28;45924;-75
2022/09/12 10:31:27;;;;;;;;;3.00;3.00;;;;;35.11;26.74;100429.25;5021315;28;45468;-75
2022/09/12 10:33:56;;;;;;;;;1.00;1.00;;;;;34.84;26.72;100439.91;5021720;28;45587;-77
2022/09/12 10:36:22;;;;;;;;;2.00;1.00;;;;;35.28;27.23;100429.03;5015925;28;45379;-76
2022/09/12 10:38:51;;;;;;;;;2.25;1.00;;;;;35.67;26.19;100424.94;5024582;28;45511;-76
2022/09/12 10:41:17;;;;;;;;;0.00;0.00;;;;;35.45;25.65;100433.19;5033358;28;45447;-76
2022/09/12 10:43:47;;;;;;;;;1.00;1.00;;;;;35.42;25.92;100422.59;5016969;28;45432;-87
2022/09/12 10:46:18;;;;;;;;;2.00;2.00;;;;;35.63;26.99;100429.13;5013752;28;45603;-75
2022/09/12 10:48:48;;;;;;;;;11.50;9.25;;;;;35.61;25.77;100428.44;5013607;28;46400;-76
2022/09/12 10:51:27;;;;;;;;;4.00;4.00;;;;;35.61;26.79;100426.56;5003946;28;45706;-86
2022/09/12 10:53:56;;;;;;;;;6.25;4.00;;;;;35.57;26.04;100419.75;5033511;28;45415;-74
2022/09/12 10:56:27;;;;;;;;;2.00;1.00;;;;;35.76;25.98;100424.56;5028430;28;45587;-77
2022/09/12 10:59:23;;;;;;;;;5.00;5.00;;;;;35.52;26.41;100422.28;5027999;28;46377;-76
2022/09/12 11:02:00;;;;;;;;;3.00;3.00;;;;;35.21;26.27;100432.53;5016422;28;45577;-75
2022/09/12 11:04:40;;;;;;;;;1.00;1.00;;;;;34.57;26.76;100421.41;5011256;28;45584;-77
2022/09/12 11:07:21;;;;;;;;;5.25;5.25;;;;;34.32;26.93;100427.22;5022347;28;45476;-75
2022/09/12 11:10:21;;;;;;;;;1.50;1.50;;;;;34.42;28.57;100425.06;5020424;28;46220;-74
2022/09/12 11:13:02;;;;;;;;;2.75;2.50;;;;;34.94;27.26;100414.94;5028406;28;45476;-77
2022/09/12 11:15:36;;;;;;;;;2.00;2.00;;;;;35.45;26.38;100427.69;5029450;28;45495;-74
2022/09/12 11:18:23;;;;;;;;;1.00;1.00;;;;;35.62;25.92;100428.25;5024888;28;45586;-76
2022/09/12 11:21:32;;;;;;;;;1.75;1.00;;;;;35.73;26.45;100426.88;5029522;28;46051;-75
2022/09/12 11:24:45;;;;;;;;;1.00;1.00;;;;;36.01;26.21;100415.03;5026508;28;45643;-77
2022/09/12 11:27:37;;;;;;;;;1.00;1.00;;;;;36.21;26.17;100410.50;4972520;28;45552;-76
2022/09/12 11:30:10;;;;;;;;;1.75;1.75;;;;;36.14;26.30;100409.63;4982027;28;45630;-77
2022/09/12 11:33:14;;;;;;;;;1.00;1.00;;;;;36.43;25.96;100408.53;4987777;28;45756;-77
2022/09/12 11:35:48;;;;;;;;;1.00;1.00;;;;;36.31;25.45;100401.91;4983509;28;45916;-75
2022/09/12 11:38:40;;;;;;;;;0.75;0.75;;;;;36.35;25.22;100372.09;4976898;28;45524;-77
2022/09/12 11:41:26;;;;;;;;;0.50;0.50;;;;;36.05;24.75;100378.69;4985519;28;45522;-76
2022/09/12 11:44:16;;;;;;;;;0.00;0.00;;;;;35.72;25.31;100372.97;4977648;28;45457;-76